createdAt,value
2024-01-15T00:02:09.736Z,8.23
2024-01-15T00:04:42.135Z,8.24
2024-01-15T00:07:11.249Z,8.23
2024-01-15T00:09:39.904Z,8.24
2024-01-15T00:12:09.403Z,8.24
2024-01-15T00:14:37.909Z,8.24
2024-01-15T00:17:06.614Z,8.25
2024-01-15T00:19:35.237Z,8.27
2024-01-15T00:22:05.960Z,8.24
2024-01-15T00:24:34.677Z,8.24
2024-01-15T00:27:03.214Z,8.23
2024-01-15T00:29:31.667Z,8.20
2024-01-15T00:32:00.394Z,8.20
2024-01-15T00:34:28.953Z,8.19
2024-01-15T00:36:57.470Z,8.18
2024-01-15T00:39:28.286Z,8.18
2024-01-15T00:41:56.716Z,8.19
2024-01-15T00:44:25.142Z,8.21
2024-01-15T00:46:53.601Z,8.21
2024-01-15T00:49:22.237Z,8.21
2024-01-15T00:51:51.166Z,8.23
2024-01-15T00:54:19.768Z,8.24
2024-01-15T00:56:49.574Z,8.24
2024-01-15T00:59:18.950Z,8.24
2024-01-15T01:01:47.980Z,8.23
2024-01-15T01:04:16.906Z,8.26
2024-01-15T01:06:45.675Z,8.28
2024-01-15T01:09:14.291Z,8.28
2024-01-15T01:11:42.945Z,8.30
2024-01-15T01:14:18.420Z,8.29
2024-01-15T01:16:47.523Z,8.30
2024-01-15T01:19:16.268Z,8.30
2024-01-15T01:21:44.894Z,8.31
2024-01-15T01:24:13.893Z,8.28
2024-01-15T01:26:42.562Z,8.25
2024-01-15T01:29:11.162Z,8.23
2024-01-15T01:31:46.271Z,8.18
2024-01-15T01:34:17.606Z,8.19
2024-01-15T01:36:46.426Z,8.21
2024-01-15T01:39:15.278Z,8.22
2024-01-15T01:41:43.836Z,8.24
2024-01-15T01:44:12.331Z,8.28
2024-01-15T01:46:43.077Z,8.30
2024-01-15T01:49:12.444Z,8.28
2024-01-15T01:51:41.853Z,8.32
2024-01-15T01:54:13.843Z,8.32
2024-01-15T01:56:43.497Z,8.35
2024-01-15T01:59:13.687Z,8.35
2024-01-15T02:01:44.122Z,8.35
2024-01-15T02:04:13.571Z,8.33
2024-01-15T02:06:42.222Z,8.33
2024-01-15T02:09:11.136Z,8.32
2024-01-15T02:11:40.004Z,8.34
2024-01-15T02:14:08.833Z,8.35
2024-01-15T02:16:37.308Z,8.35
2024-01-15T02:19:08.574Z,8.35
2024-01-15T02:21:37.392Z,8.35
2024-01-15T02:24:07.993Z,8.35
2024-01-15T02:26:38.377Z,8.36
2024-01-15T02:29:09.262Z,8.36
2024-01-15T02:31:38.812Z,8.35
2024-01-15T02:34:07.865Z,8.35
2024-01-15T02:36:36.487Z,8.35
2024-01-15T02:39:06.640Z,8.36
2024-01-15T02:41:35.074Z,8.36
2024-01-15T02:44:03.900Z,8.35
2024-01-15T02:46:32.666Z,8.36
2024-01-15T02:49:01.192Z,8.35
2024-01-15T02:51:29.708Z,8.34
2024-01-15T02:53:58.444Z,8.33
2024-01-15T02:56:28.245Z,8.34
2024-01-15T02:58:56.634Z,8.34
2024-01-15T03:01:25.147Z,8.36
2024-01-15T03:03:53.703Z,8.36
2024-01-15T03:06:22.138Z,8.35
2024-01-15T03:08:50.661Z,8.35
2024-01-15T03:11:19.047Z,8.34
2024-01-15T03:13:49.022Z,8.34
2024-01-15T03:16:17.704Z,8.32
2024-01-15T03:18:46.684Z,8.32
2024-01-15T03:21:15.281Z,8.32
2024-01-15T03:23:43.794Z,8.31
2024-01-15T03:26:12.344Z,8.33
2024-01-15T03:28:40.690Z,8.32
2024-01-15T03:31:10.836Z,8.36
2024-01-15T03:33:39.627Z,8.35
2024-01-15T03:36:09.765Z,8.37
2024-01-15T03:38:43.326Z,8.37
2024-01-15T03:41:11.929Z,8.37
2024-01-15T03:43:40.596Z,8.39
2024-01-15T03:46:10.823Z,8.39
2024-01-15T03:48:39.558Z,8.38
2024-01-15T03:51:08.277Z,8.35
2024-01-15T03:53:36.773Z,8.35
2024-01-15T03:56:06.180Z,8.32
2024-01-15T03:58:35.178Z,8.30
2024-01-15T04:01:03.825Z,8.32
2024-01-15T04:03:33.741Z,8.32
2024-01-15T04:06:02.244Z,8.34
2024-01-15T04:08:30.644Z,8.33
2024-01-15T04:10:59.275Z,8.34
2024-01-15T04:13:28.427Z,8.35
2024-01-15T04:15:57.042Z,8.37
2024-01-15T04:18:26.125Z,8.36
2024-01-15T04:20:56.117Z,8.37
2024-01-15T04:23:25.070Z,8.37
2024-01-15T04:25:53.527Z,8.37
2024-01-15T04:28:21.987Z,8.35
2024-01-15T04:30:50.709Z,8.37
2024-01-15T04:33:19.729Z,8.38
2024-01-15T04:35:48.389Z,8.38
2024-01-15T04:38:18.473Z,8.40
2024-01-15T04:40:46.824Z,8.40
2024-01-15T04:43:15.507Z,8.40
2024-01-15T04:45:43.974Z,8.40
2024-01-15T04:48:12.577Z,8.40
2024-01-15T04:50:41.263Z,8.41
2024-01-15T04:53:13.307Z,8.41
2024-01-15T04:55:43.524Z,8.40
2024-01-15T04:58:12.151Z,8.41
2024-01-15T05:00:40.650Z,8.42
2024-01-15T05:03:09.233Z,8.41
2024-01-15T05:05:38.032Z,8.42
2024-01-15T05:08:07.543Z,8.42
2024-01-15T05:10:36.786Z,8.41
2024-01-15T05:13:06.780Z,8.41
2024-01-15T05:15:35.255Z,8.39
2024-01-15T05:18:03.896Z,8.39
2024-01-15T05:20:32.614Z,8.40
2024-01-15T05:23:01.082Z,8.39
2024-01-15T05:25:29.482Z,8.40
2024-01-15T05:27:58.006Z,8.39
2024-01-15T05:30:28.076Z,8.40
2024-01-15T05:32:56.771Z,8.40
2024-01-15T05:35:25.444Z,8.41
2024-01-15T05:37:54.071Z,8.40
2024-01-15T05:40:22.905Z,8.39
2024-01-15T05:42:51.528Z,8.40
2024-01-15T05:45:20.072Z,8.40
2024-01-15T05:47:50.507Z,8.40
2024-01-15T05:50:19.235Z,8.40
2024-01-15T05:52:47.694Z,8.39
2024-01-15T05:55:16.340Z,8.37
2024-01-15T05:57:44.870Z,8.39
2024-01-15T06:00:15.197Z,8.37
2024-01-15T06:02:43.568Z,8.36
2024-01-15T06:05:13.369Z,8.38
2024-01-15T06:07:41.762Z,8.38
2024-01-15T06:10:11.092Z,8.39
2024-01-15T06:12:39.793Z,8.39
2024-01-15T06:15:09.054Z,8.40
2024-01-15T06:17:38.730Z,8.41
2024-01-15T06:20:10.193Z,8.40
2024-01-15T06:22:41.170Z,8.41
2024-01-15T06:25:10.701Z,8.39
2024-01-15T06:27:39.228Z,8.40
2024-01-15T06:30:09.590Z,8.39
2024-01-15T06:32:38.090Z,8.39
2024-01-15T06:35:07.972Z,8.38
2024-01-15T06:37:36.916Z,8.39
2024-01-15T06:40:08.472Z,8.40
2024-01-15T06:42:37.056Z,8.39
2024-01-15T06:45:07.482Z,8.42
2024-01-15T06:47:36.207Z,8.40
2024-01-15T06:50:06.108Z,8.41
2024-01-15T06:52:34.645Z,8.41
2024-01-15T06:55:03.101Z,8.41
2024-01-15T06:57:32.925Z,8.40
2024-01-15T07:00:02.110Z,8.40
2024-01-15T07:02:30.683Z,8.40
2024-01-15T07:04:59.196Z,8.40
2024-01-15T07:07:30.206Z,8.40
2024-01-15T07:09:59.241Z,8.41
2024-01-15T07:12:27.888Z,8.42
2024-01-15T07:14:58.692Z,8.42
2024-01-15T07:17:28.812Z,8.40
2024-01-15T07:19:57.364Z,8.39
2024-01-15T07:22:25.886Z,8.40
2024-01-15T07:24:55.791Z,8.40
2024-01-15T07:27:24.417Z,8.39
2024-01-15T07:29:53.391Z,8.38
2024-01-15T07:32:23.320Z,8.41
2024-01-15T07:34:51.887Z,8.39
2024-01-15T07:37:21.000Z,8.39
2024-01-15T07:39:49.593Z,8.37
2024-01-15T07:42:18.331Z,8.35
2024-01-15T07:44:47.224Z,8.34
2024-01-15T07:47:16.380Z,8.32
2024-01-15T07:49:46.553Z,8.32
2024-01-15T07:52:15.133Z,8.32
2024-01-15T07:54:43.595Z,8.32
2024-01-15T07:57:13.394Z,8.33
2024-01-15T07:59:42.434Z,8.34
2024-01-15T08:02:11.087Z,8.32
2024-01-15T08:04:39.886Z,8.32
2024-01-15T08:07:10.390Z,8.34
2024-01-15T08:09:38.923Z,8.35
2024-01-15T08:12:08.362Z,8.33
2024-01-15T08:14:36.810Z,8.36
2024-01-15T08:17:05.415Z,8.36
2024-01-15T08:19:34.221Z,8.39
2024-01-15T08:22:03.098Z,8.41
2024-01-15T08:24:33.480Z,8.41
2024-01-15T08:27:01.997Z,8.42
2024-01-15T08:29:34.189Z,8.42
2024-01-15T08:32:02.754Z,8.42
2024-01-15T08:34:32.505Z,8.43
2024-01-15T08:37:00.999Z,8.43
2024-01-15T08:39:29.718Z,8.43
2024-01-15T08:42:00.496Z,8.42
2024-01-15T08:44:29.293Z,8.43
2024-01-15T08:46:57.771Z,8.44
2024-01-15T08:49:26.368Z,8.44
2024-01-15T08:51:54.976Z,8.44
2024-01-15T08:54:23.681Z,8.44
2024-01-15T08:56:52.159Z,8.42
2024-01-15T08:59:25.809Z,8.40
2024-01-15T09:01:54.949Z,8.38
2024-01-15T09:04:23.519Z,8.37
2024-01-15T09:06:52.143Z,8.38
2024-01-15T09:09:20.851Z,8.36
2024-01-15T09:11:49.294Z,8.38
2024-01-15T09:14:23.900Z,8.36
2024-01-15T09:17:00.173Z,8.36
2024-01-15T09:19:28.846Z,8.37
2024-01-15T09:21:57.428Z,8.37
2024-01-15T09:24:28.074Z,8.37
2024-01-15T09:26:57.604Z,8.38
2024-01-15T09:29:26.198Z,8.39
2024-01-15T09:31:54.720Z,8.40
2024-01-15T09:34:25.081Z,8.39
2024-01-15T09:36:53.637Z,8.39
2024-01-15T09:39:22.701Z,8.36
2024-01-15T09:41:51.846Z,8.35
2024-01-15T09:44:21.405Z,8.32
2024-01-15T09:46:51.354Z,8.31
2024-01-15T09:49:20.585Z,8.28
2024-01-15T09:51:59.248Z,8.24
2024-01-15T09:54:35.688Z,8.21
2024-01-15T09:57:04.618Z,8.20
2024-01-15T09:59:34.753Z,8.20
2024-01-15T10:02:04.407Z,8.20
2024-01-15T10:04:33.083Z,8.20
2024-01-15T10:07:03.748Z,8.18
2024-01-15T10:09:32.640Z,8.18
2024-01-15T10:12:01.555Z,8.18
2024-01-15T10:14:30.019Z,8.18
2024-01-15T10:16:58.919Z,8.17
2024-01-15T10:19:27.576Z,8.16
2024-01-15T10:21:56.246Z,8.17
2024-01-15T10:24:26.350Z,8.19
2024-01-15T10:27:07.227Z,8.21
2024-01-15T10:29:35.700Z,8.21
2024-01-15T10:32:04.859Z,8.23
2024-01-15T10:34:34.277Z,8.24
2024-01-15T10:37:04.417Z,8.25
2024-01-15T10:39:34.661Z,8.27
2024-01-15T10:42:04.211Z,8.25
2024-01-15T10:44:32.798Z,8.25
2024-01-15T10:47:01.866Z,8.27
2024-01-15T10:49:33.153Z,8.30
2024-01-15T10:52:04.225Z,8.32
2024-01-15T10:54:35.096Z,8.33
2024-01-15T10:57:06.502Z,8.32
2024-01-15T10:59:35.543Z,8.31
2024-01-15T11:02:04.472Z,8.32
2024-01-15T11:04:35.162Z,8.32
2024-01-15T11:07:05.246Z,8.33
2024-01-15T11:09:35.287Z,8.34
2024-01-15T11:12:12.986Z,8.34
2024-01-15T11:14:44.941Z,8.33
2024-01-15T11:17:14.896Z,8.35
2024-01-15T11:19:47.883Z,8.36
2024-01-15T11:22:50.525Z,8.33
2024-01-15T11:25:21.753Z,8.32
2024-01-15T11:27:53.706Z,8.32
2024-01-15T11:30:27.622Z,8.34
2024-01-15T11:32:56.489Z,8.33
2024-01-15T11:35:28.779Z,8.35
2024-01-15T11:38:02.160Z,8.37
2024-01-15T11:40:43.991Z,8.38
2024-01-15T11:43:14.378Z,8.36
2024-01-15T11:45:43.380Z,8.36
2024-01-15T11:48:15.502Z,8.38
2024-01-15T11:50:46.450Z,8.36
2024-01-15T11:53:36.248Z,8.37
2024-01-15T11:56:17.032Z,8.35
2024-01-15T11:58:45.716Z,8.35
2024-01-15T12:01:14.446Z,8.36
2024-01-15T12:03:42.978Z,8.34
2024-01-15T12:06:13.005Z,8.34
2024-01-15T12:08:41.666Z,8.36
2024-01-15T12:11:16.285Z,8.39
2024-01-15T12:13:45.092Z,8.38
2024-01-15T12:16:14.231Z,8.40
2024-01-15T12:18:44.009Z,8.42
2024-01-15T12:21:12.657Z,8.43
2024-01-15T12:23:42.106Z,8.43
2024-01-15T12:26:12.046Z,8.43
2024-01-15T12:28:40.713Z,8.43
2024-01-15T12:31:09.291Z,8.43
2024-01-15T12:33:38.558Z,8.44
2024-01-15T12:36:08.169Z,8.44
2024-01-15T12:38:36.617Z,8.43
2024-01-15T12:41:05.313Z,8.45
2024-01-15T12:43:35.371Z,8.44
2024-01-15T12:46:04.649Z,8.45
2024-01-15T12:48:33.581Z,8.43
2024-01-15T12:51:02.141Z,8.43
2024-01-15T12:53:30.615Z,8.43
2024-01-15T12:55:59.572Z,8.42
2024-01-15T12:58:28.085Z,8.41
2024-01-15T13:00:58.561Z,8.42
2024-01-15T13:03:27.335Z,8.39
2024-01-15T13:05:56.263Z,8.40
2024-01-15T13:08:27.467Z,8.41
2024-01-15T13:10:58.000Z,8.41
2024-01-15T13:13:26.542Z,8.42
2024-01-15T13:15:55.217Z,8.43
2024-01-15T13:18:25.091Z,8.44
2024-01-15T13:20:53.550Z,8.44
2024-01-15T13:23:22.202Z,8.43
2024-01-15T13:25:51.095Z,8.45
2024-01-15T13:28:19.624Z,8.45
2024-01-15T13:30:48.826Z,8.45
2024-01-15T13:33:17.774Z,8.45
2024-01-15T13:35:50.814Z,8.46
2024-01-15T13:38:19.515Z,8.46
2024-01-15T13:40:47.927Z,8.46
2024-01-15T13:43:16.567Z,8.46
2024-01-15T13:45:46.177Z,8.47
2024-01-15T13:48:14.797Z,8.49
2024-01-15T13:50:43.383Z,8.44
2024-01-15T13:53:13.376Z,8.46
2024-01-15T13:55:41.918Z,8.45
2024-01-15T13:58:10.332Z,8.45
2024-01-15T14:00:38.987Z,8.44
2024-01-15T14:03:08.042Z,8.42
2024-01-15T14:05:36.586Z,8.41
2024-01-15T14:08:05.681Z,8.42
2024-01-15T14:10:35.552Z,8.42
2024-01-15T14:13:04.010Z,8.42
2024-01-15T14:15:32.517Z,8.43
2024-01-15T14:18:02.360Z,8.43
2024-01-15T14:20:31.150Z,8.42
2024-01-15T14:22:59.606Z,8.42
2024-01-15T14:25:28.049Z,8.42
2024-01-15T14:27:58.114Z,8.41
2024-01-15T14:30:26.865Z,8.44
2024-01-15T14:32:55.620Z,8.44
2024-01-15T14:35:24.216Z,8.44
2024-01-15T14:37:53.003Z,8.46
2024-01-15T14:40:21.413Z,8.45
2024-01-15T14:42:49.945Z,8.42
2024-01-15T14:45:20.063Z,8.42
2024-01-15T14:47:48.767Z,8.39
2024-01-15T14:50:17.576Z,8.36
2024-01-15T14:52:47.537Z,8.35
2024-01-15T14:55:15.975Z,8.35
2024-01-15T14:57:44.595Z,8.35
2024-01-15T15:00:14.733Z,8.35
2024-01-15T15:02:44.940Z,8.34
2024-01-15T15:05:14.727Z,8.32
2024-01-15T15:07:43.374Z,8.32
2024-01-15T15:10:13.302Z,8.30
2024-01-15T15:12:43.338Z,8.32
2024-01-15T15:15:16.423Z,8.30
2024-01-15T15:17:49.867Z,8.32
2024-01-15T15:20:20.143Z,8.29
2024-01-15T15:22:48.712Z,8.28
2024-01-15T15:25:17.220Z,8.26
2024-01-15T15:27:45.785Z,8.24
2024-01-15T15:30:15.124Z,8.26
2024-01-15T15:32:44.353Z,8.25
2024-01-15T15:35:14.565Z,8.28
2024-01-15T15:37:43.090Z,8.27
2024-01-15T15:40:14.121Z,8.27
2024-01-15T15:42:43.306Z,8.25
2024-01-15T15:45:12.346Z,8.29
2024-01-15T15:47:41.268Z,8.31
2024-01-15T15:50:10.567Z,8.32
2024-01-15T15:52:40.376Z,8.32
2024-01-15T15:55:10.101Z,8.35
2024-01-15T15:57:38.718Z,8.35
2024-01-15T16:00:09.346Z,8.35
2024-01-15T16:02:43.582Z,8.32
2024-01-15T16:05:12.387Z,8.35
2024-01-15T16:07:42.245Z,8.35
2024-01-15T16:10:11.833Z,8.36
2024-01-15T16:12:40.744Z,8.34
2024-01-15T16:15:22.728Z,8.33
2024-01-15T16:23:17.648Z,8.33
2024-01-15T16:23:32.254Z,8.33
2024-01-15T16:24:05.836Z,8.33
2024-01-15T16:26:20.783Z,8.32
2024-01-15T16:28:49.631Z,8.32
2024-01-15T16:31:18.227Z,8.31
2024-01-15T16:33:53.007Z,8.32
2024-01-15T16:36:27.189Z,8.31
2024-01-15T16:38:57.104Z,8.31
2024-01-15T16:41:25.740Z,8.29
2024-01-15T16:43:54.536Z,8.30
2024-01-15T16:46:23.097Z,8.30
2024-01-15T16:48:51.760Z,8.31
2024-01-15T16:51:20.497Z,8.32
2024-01-15T16:53:49.175Z,8.32
2024-01-15T16:56:19.416Z,8.30
2024-01-15T16:58:48.238Z,8.30
2024-01-15T17:01:16.826Z,8.31
2024-01-15T17:03:45.317Z,8.32
2024-01-15T17:06:14.557Z,8.32
2024-01-15T17:08:43.867Z,8.31
2024-01-15T17:11:12.519Z,8.31
2024-01-15T17:13:42.507Z,8.30
2024-01-15T17:16:11.334Z,8.28
2024-01-15T17:18:39.939Z,8.26
2024-01-15T17:21:08.446Z,8.25
2024-01-15T17:23:37.131Z,8.25
2024-01-15T17:26:06.370Z,8.25
2024-01-15T17:28:35.310Z,8.25
2024-01-15T17:31:05.150Z,8.26
2024-01-15T17:33:33.835Z,8.27
2024-01-15T17:36:07.196Z,8.25
2024-01-15T17:38:35.778Z,8.24
2024-01-15T17:41:04.393Z,8.25
2024-01-15T17:43:33.521Z,8.27
2024-01-15T17:46:02.847Z,8.26
2024-01-15T17:48:34.176Z,8.29
2024-01-15T17:51:04.285Z,8.30
2024-01-15T17:53:33.823Z,8.31
2024-01-15T17:56:02.573Z,8.32
2024-01-15T17:58:31.908Z,8.32
2024-01-15T18:01:03.185Z,8.33
2024-01-15T18:03:33.357Z,8.33
2024-01-15T18:06:02.452Z,8.35
2024-01-15T18:08:31.098Z,8.35
2024-01-15T18:11:00.181Z,8.38
2024-01-15T18:13:29.004Z,8.38
2024-01-15T18:15:58.951Z,8.39
2024-01-15T18:18:27.750Z,8.39
2024-01-15T18:20:57.910Z,8.38
2024-01-15T18:23:26.577Z,8.39
2024-01-15T18:25:55.158Z,8.39
2024-01-15T18:28:23.628Z,8.39
2024-01-15T18:30:52.224Z,8.37
2024-01-15T18:33:23.818Z,8.36
2024-01-15T18:35:53.128Z,8.34
2024-01-15T18:38:23.037Z,8.33
2024-01-15T18:40:52.728Z,8.32
2024-01-15T18:43:22.166Z,8.32
2024-01-15T18:45:51.146Z,8.32
2024-01-15T18:48:19.731Z,8.30
2024-01-15T18:50:49.268Z,8.30
2024-01-15T18:53:17.797Z,8.31
2024-01-15T18:55:48.012Z,8.29
2024-01-15T18:58:17.781Z,8.29
2024-01-15T19:00:46.750Z,8.29
2024-01-15T19:03:15.172Z,8.31
2024-01-15T19:05:44.572Z,8.31
2024-01-15T19:08:13.113Z,8.32
2024-01-15T19:10:42.786Z,8.32
2024-01-15T19:13:13.559Z,8.33
2024-01-15T19:15:42.388Z,8.34
2024-01-15T19:18:11.314Z,8.36
2024-01-15T19:20:39.916Z,8.37
2024-01-15T19:23:09.548Z,8.39
2024-01-15T19:25:38.125Z,8.40
2024-01-15T19:28:10.028Z,8.42
2024-01-15T19:30:41.011Z,8.43
2024-01-15T19:33:09.821Z,8.41
2024-01-15T19:35:38.381Z,8.38
2024-01-15T19:38:08.122Z,8.37
2024-01-15T19:40:37.813Z,8.37
2024-01-15T19:43:06.412Z,8.34
2024-01-15T19:45:35.281Z,8.31
2024-01-15T19:48:07.558Z,8.31
2024-01-15T19:50:36.116Z,8.31
2024-01-15T19:53:04.974Z,8.31
2024-01-15T19:55:33.567Z,8.30
2024-01-15T19:58:02.227Z,8.30
2024-01-15T20:00:30.738Z,8.32
2024-01-15T20:02:59.291Z,8.32
2024-01-15T20:05:32.981Z,8.32
2024-01-15T20:08:05.453Z,8.31
2024-01-15T20:10:35.191Z,8.31
2024-01-15T20:13:03.785Z,8.32
2024-01-15T20:15:34.240Z,8.31
2024-01-15T20:18:03.051Z,8.32
2024-01-15T20:20:35.696Z,8.32
2024-01-15T20:23:05.804Z,8.33
2024-01-15T20:25:38.155Z,8.32
2024-01-15T20:28:08.389Z,8.33
2024-01-15T20:30:36.902Z,8.32
2024-01-15T20:33:05.873Z,8.33
2024-01-15T20:35:35.856Z,8.33
2024-01-15T20:38:04.894Z,8.34
2024-01-15T20:40:35.678Z,8.33
2024-01-15T20:43:05.755Z,8.33
2024-01-15T20:45:36.362Z,8.33
2024-01-15T20:48:06.245Z,8.32
2024-01-15T20:50:36.662Z,8.32
2024-01-15T20:53:05.398Z,8.32
2024-01-15T20:55:34.689Z,8.31
2024-01-15T20:58:04.132Z,8.29
2024-01-15T21:00:32.815Z,8.28
2024-01-15T21:03:01.394Z,8.28
2024-01-15T21:05:30.968Z,8.27
2024-01-15T21:08:01.044Z,8.27
2024-01-15T21:10:29.522Z,8.25
2024-01-15T21:12:58.160Z,8.26
2024-01-15T21:15:26.839Z,8.26
2024-01-15T21:17:55.530Z,8.26
2024-01-15T21:20:24.489Z,8.26
2024-01-15T21:22:53.109Z,8.25
2024-01-15T21:25:22.979Z,8.27
2024-01-15T21:27:53.379Z,8.28
2024-01-15T21:30:23.796Z,8.30
2024-01-15T21:32:52.791Z,8.30
2024-01-15T21:35:21.394Z,8.29
2024-01-15T21:37:49.865Z,8.29
2024-01-15T21:40:18.441Z,8.29
2024-01-15T21:42:48.543Z,8.30
2024-01-15T21:45:18.277Z,8.29
2024-01-15T21:47:46.808Z,8.27
2024-01-15T21:50:18.557Z,8.25
2024-01-15T21:52:47.260Z,8.23
2024-01-15T21:55:18.821Z,8.24
2024-01-15T21:57:49.020Z,8.22
2024-01-15T22:00:19.634Z,8.22
2024-01-15T22:02:48.622Z,8.21
2024-01-15T22:05:18.323Z,8.21
2024-01-15T22:07:47.049Z,8.22
2024-01-15T22:10:15.619Z,8.23
2024-01-15T22:12:44.129Z,8.23
2024-01-15T22:15:15.221Z,8.24
2024-01-15T22:17:43.819Z,8.23
2024-01-15T22:20:13.740Z,8.23
2024-01-15T22:22:42.347Z,8.21
2024-01-15T22:25:11.191Z,8.20
2024-01-15T22:27:40.007Z,8.20
2024-01-15T22:30:11.604Z,8.21
2024-01-15T22:32:41.803Z,8.19
2024-01-15T22:35:11.693Z,8.18
2024-01-15T22:37:41.717Z,8.16
2024-01-15T22:40:11.240Z,8.16
2024-01-15T22:42:39.874Z,8.18
2024-01-15T22:45:10.210Z,8.17
2024-01-15T22:47:41.011Z,8.16
2024-01-15T22:50:14.295Z,8.16
2024-01-15T22:52:42.902Z,8.16
2024-01-15T22:55:11.862Z,8.16
2024-01-15T22:57:40.760Z,8.16
2024-01-15T23:00:16.118Z,8.18
2024-01-15T23:02:47.044Z,8.18
2024-01-15T23:05:17.198Z,8.17
2024-01-15T23:07:45.949Z,8.15
2024-01-15T23:10:15.110Z,8.15
2024-01-15T23:12:43.840Z,8.15
2024-01-15T23:15:12.391Z,8.16
2024-01-15T23:17:41.256Z,8.16
2024-01-15T23:20:13.605Z,8.16
2024-01-15T23:22:42.611Z,8.15
2024-01-15T23:25:11.953Z,8.15
2024-01-15T23:27:40.524Z,8.17
2024-01-15T23:30:11.357Z,8.19
2024-01-15T23:32:40.500Z,8.20
2024-01-15T23:35:11.534Z,8.19
2024-01-15T23:37:43.917Z,8.19
2024-01-15T23:40:15.080Z,8.18
2024-01-15T23:42:43.734Z,8.18
2024-01-15T23:45:12.415Z,8.18
2024-01-15T23:47:41.101Z,8.18
2024-01-15T23:50:11.641Z,8.18
2024-01-15T23:52:40.282Z,8.18
2024-01-15T23:55:09.484Z,8.18
2024-01-15T23:57:37.961Z,8.16
